sensor_id;sensor_type;location;lat;lon;timestamp;P1;durP1;ratioP1;P2;durP2;ratioP2
71759;SDS011;59919;48.112;16.280;2023-01-23T00:01:53;7.70;;;5.82;;
71759;SDS011;59919;48.112;16.280;2023-01-23T00:04:26;7.03;;;4.75;;
71759;SDS011;59919;48.112;16.280;2023-01-23T00:06:57;6.93;;;5.22;;
71759;SDS011;59919;48.112;16.280;2023-01-23T00:09:28;7.68;;;5.30;;
71759;SDS011;59919;48.112;16.280;2023-01-23T00:11:59;6.65;;;5.38;;
71759;SDS011;59919;48.112;16.280;2023-01-23T00:14:30;7.80;;;5.45;;
71759;SDS011;59919;48.112;16.280;2023-01-23T00:17:01;8.35;;;6.05;;
71759;SDS011;59919;48.112;16.280;2023-01-23T00:19:34;6.53;;;5.25;;
71759;SDS011;59919;48.112;16.280;2023-01-23T00:22:05;6.45;;;5.25;;
71759;SDS011;59919;48.112;16.280;2023-01-23T00:24:36;7.50;;;5.38;;
71759;SDS011;59919;48.112;16.280;2023-01-23T00:27:09;6.32;;;5.07;;
71759;SDS011;59919;48.112;16.280;2023-01-23T00:29:40;7.93;;;5.60;;
71759;SDS011;59919;48.112;16.280;2023-01-23T00:32:11;7.60;;;5.65;;
71759;SDS011;59919;48.112;16.280;2023-01-23T00:34:42;8.68;;;5.75;;
71759;SDS011;59919;48.112;16.280;2023-01-23T00:37:14;8.15;;;6.03;;
71759;SDS011;59919;48.112;16.280;2023-01-23T00:39:51;6.70;;;5.43;;
71759;SDS011;59919;48.112;16.280;2023-01-23T00:42:26;6.70;;;5.15;;
71759;SDS011;59919;48.112;16.280;2023-01-23T00:45:00;8.95;;;5.80;;
71759;SDS011;59919;48.112;16.280;2023-01-23T00:47:36;7.57;;;5.68;;
71759;SDS011;59919;48.112;16.280;2023-01-23T00:50:14;7.63;;;5.80;;
71759;SDS011;59919;48.112;16.280;2023-01-23T00:52:45;6.82;;;5.32;;
71759;SDS011;59919;48.112;16.280;2023-01-23T00:55:19;7.47;;;5.53;;
71759;SDS011;59919;48.112;16.280;2023-01-23T00:57:52;7.63;;;6.07;;
71759;SDS011;59919;48.112;16.280;2023-01-23T01:00:23;8.40;;;6.00;;
71759;SDS011;59919;48.112;16.280;2023-01-23T01:02:54;8.65;;;6.10;;
71759;SDS011;59919;48.112;16.280;2023-01-23T01:05:28;8.85;;;6.63;;
71759;SDS011;59919;48.112;16.280;2023-01-23T01:07:59;7.65;;;5.90;;
71759;SDS011;59919;48.112;16.280;2023-01-23T01:10:30;8.30;;;5.90;;
71759;SDS011;59919;48.112;16.280;2023-01-23T01:13:04;7.97;;;5.72;;
71759;SDS011;59919;48.112;16.280;2023-01-23T01:15:35;10.18;;;6.40;;
71759;SDS011;59919;48.112;16.280;2023-01-23T01:18:12;8.55;;;6.03;;
71759;SDS011;59919;48.112;16.280;2023-01-23T01:20:44;8.43;;;6.25;;
71759;SDS011;59919;48.112;16.280;2023-01-23T01:23:17;7.47;;;5.72;;
71759;SDS011;59919;48.112;16.280;2023-01-23T01:25:49;8.52;;;6.13;;
71759;SDS011;59919;48.112;16.280;2023-01-23T01:28:20;8.13;;;6.00;;
71759;SDS011;59919;48.112;16.280;2023-01-23T01:30:51;6.28;;;5.53;;
71759;SDS011;59919;48.112;16.280;2023-01-23T01:33:22;7.68;;;5.95;;
71759;SDS011;59919;48.112;16.280;2023-01-23T01:35:57;9.13;;;6.60;;
71759;SDS011;59919;48.112;16.280;2023-01-23T01:38:30;7.90;;;6.15;;
71759;SDS011;59919;48.112;16.280;2023-01-23T01:41:01;7.97;;;5.63;;
71759;SDS011;59919;48.112;16.280;2023-01-23T01:43:32;8.25;;;6.25;;
71759;SDS011;59919;48.112;16.280;2023-01-23T01:52:14;8.23;;;6.47;;
71759;SDS011;59919;48.112;16.280;2023-01-23T01:54:38;9.05;;;6.70;;
71759;SDS011;59919;48.112;16.280;2023-01-23T01:59:56;8.98;;;6.50;;
71759;SDS011;59919;48.112;16.280;2023-01-23T02:02:42;9.32;;;6.38;;
71759;SDS011;59919;48.112;16.280;2023-01-23T02:05:30;8.68;;;6.53;;
71759;SDS011;59919;48.112;16.280;2023-01-23T02:08:26;9.90;;;7.00;;
71759;SDS011;59919;48.112;16.280;2023-01-23T02:11:18;9.75;;;6.60;;
71759;SDS011;59919;48.112;16.280;2023-01-23T02:13:49;11.27;;;6.97;;
71759;SDS011;59919;48.112;16.280;2023-01-23T02:24:57;7.95;;;6.20;;
71759;SDS011;59919;48.112;16.280;2023-01-23T02:28:01;9.50;;;7.05;;
71759;SDS011;59919;48.112;16.280;2023-01-23T02:30:34;9.65;;;6.63;;
71759;SDS011;59919;48.112;16.280;2023-01-23T02:33:50;9.18;;;6.70;;
71759;SDS011;59919;48.112;16.280;2023-01-23T02:36:01;9.50;;;6.80;;
71759;SDS011;59919;48.112;16.280;2023-01-23T02:38:44;9.10;;;6.72;;
71759;SDS011;59919;48.112;16.280;2023-01-23T02:41:28;10.52;;;7.20;;
71759;SDS011;59919;48.112;16.280;2023-01-23T02:44:10;11.02;;;7.35;;
71759;SDS011;59919;48.112;16.280;2023-01-23T02:46:44;9.20;;;6.90;;
71759;SDS011;59919;48.112;16.280;2023-01-23T02:49:15;11.38;;;7.20;;
71759;SDS011;59919;48.112;16.280;2023-01-23T02:51:56;11.63;;;7.30;;
71759;SDS011;59919;48.112;16.280;2023-01-23T02:54:28;9.40;;;6.93;;
71759;SDS011;59919;48.112;16.280;2023-01-23T02:56:59;9.45;;;7.03;;
71759;SDS011;59919;48.112;16.280;2023-01-23T02:59:34;9.75;;;7.18;;
71759;SDS011;59919;48.112;16.280;2023-01-23T03:02:29;11.32;;;7.57;;
71759;SDS011;59919;48.112;16.280;2023-01-23T03:05:00;9.90;;;7.20;;
71759;SDS011;59919;48.112;16.280;2023-01-23T03:07:32;9.65;;;7.25;;
71759;SDS011;59919;48.112;16.280;2023-01-23T03:10:03;10.25;;;6.93;;
71759;SDS011;59919;48.112;16.280;2023-01-23T03:12:44;9.98;;;7.15;;
71759;SDS011;59919;48.112;16.280;2023-01-23T03:15:15;10.80;;;7.47;;
71759;SDS011;59919;48.112;16.280;2023-01-23T03:17:46;10.52;;;7.20;;
71759;SDS011;59919;48.112;16.280;2023-01-23T03:20:21;10.82;;;7.65;;
71759;SDS011;59919;48.112;16.280;2023-01-23T03:22:56;11.02;;;7.30;;
71759;SDS011;59919;48.112;16.280;2023-01-23T03:25:27;11.65;;;7.90;;
71759;SDS011;59919;48.112;16.280;2023-01-23T03:27:58;11.88;;;7.28;;
71759;SDS011;59919;48.112;16.280;2023-01-23T03:30:29;9.35;;;7.05;;
71759;SDS011;59919;48.112;16.280;2023-01-23T03:33:00;11.93;;;7.60;;
71759;SDS011;59919;48.112;16.280;2023-01-23T03:35:33;10.35;;;7.30;;
71759;SDS011;59919;48.112;16.280;2023-01-23T03:38:05;10.82;;;7.40;;
71759;SDS011;59919;48.112;16.280;2023-01-23T03:40:38;10.90;;;7.95;;
71759;SDS011;59919;48.112;16.280;2023-01-23T03:43:31;10.27;;;7.10;;
71759;SDS011;59919;48.112;16.280;2023-01-23T03:46:02;11.07;;;7.97;;
71759;SDS011;59919;48.112;16.280;2023-01-23T03:48:36;11.88;;;7.88;;
71759;SDS011;59919;48.112;16.280;2023-01-23T03:51:09;11.10;;;7.75;;
71759;SDS011;59919;48.112;16.280;2023-01-23T03:53:43;11.73;;;8.20;;
71759;SDS011;59919;48.112;16.280;2023-01-23T03:56:14;10.10;;;7.15;;
71759;SDS011;59919;48.112;16.280;2023-01-23T03:58:56;11.30;;;7.93;;
71759;SDS011;59919;48.112;16.280;2023-01-23T04:01:30;13.20;;;8.15;;
71759;SDS011;59919;48.112;16.280;2023-01-23T04:04:02;12.20;;;8.27;;
71759;SDS011;59919;48.112;16.280;2023-01-23T04:06:33;13.10;;;8.05;;
71759;SDS011;59919;48.112;16.280;2023-01-23T04:09:05;12.30;;;8.27;;
71759;SDS011;59919;48.112;16.280;2023-01-23T04:11:36;12.82;;;8.10;;
71759;SDS011;59919;48.112;16.280;2023-01-23T04:14:11;11.65;;;8.13;;
71759;SDS011;59919;48.112;16.280;2023-01-23T04:16:42;11.32;;;8.07;;
71759;SDS011;59919;48.112;16.280;2023-01-23T04:19:14;12.40;;;8.35;;
71759;SDS011;59919;48.112;16.280;2023-01-23T04:21:45;12.77;;;8.02;;
71759;SDS011;59919;48.112;16.280;2023-01-23T04:24:18;10.85;;;7.85;;
71759;SDS011;59919;48.112;16.280;2023-01-23T04:26:49;12.13;;;8.15;;
71759;SDS011;59919;48.112;16.280;2023-01-23T04:29:20;12.00;;;7.57;;
71759;SDS011;59919;48.112;16.280;2023-01-23T04:31:53;12.45;;;8.50;;
71759;SDS011;59919;48.112;16.280;2023-01-23T04:34:26;11.80;;;8.07;;
71759;SDS011;59919;48.112;16.280;2023-01-23T04:36:57;11.00;;;7.85;;
71759;SDS011;59919;48.112;16.280;2023-01-23T04:39:29;12.85;;;8.48;;
71759;SDS011;59919;48.112;16.280;2023-01-23T04:42:02;12.80;;;8.25;;
71759;SDS011;59919;48.112;16.280;2023-01-23T04:44:34;15.20;;;8.93;;
71759;SDS011;59919;48.112;16.280;2023-01-23T04:47:05;14.00;;;8.50;;
71759;SDS011;59919;48.112;16.280;2023-01-23T04:49:39;11.98;;;7.72;;
71759;SDS011;59919;48.112;16.280;2023-01-23T04:52:13;12.20;;;8.57;;
71759;SDS011;59919;48.112;16.280;2023-01-23T04:54:44;12.73;;;7.78;;
71759;SDS011;59919;48.112;16.280;2023-01-23T04:57:18;12.27;;;7.90;;
71759;SDS011;59919;48.112;16.280;2023-01-23T04:59:54;12.57;;;8.50;;
71759;SDS011;59919;48.112;16.280;2023-01-23T05:02:27;13.40;;;8.70;;
71759;SDS011;59919;48.112;16.280;2023-01-23T05:04:58;13.18;;;8.10;;
71759;SDS011;59919;48.112;16.280;2023-01-23T05:07:30;13.82;;;8.82;;
71759;SDS011;59919;48.112;16.280;2023-01-23T05:10:02;13.02;;;8.50;;
71759;SDS011;59919;48.112;16.280;2023-01-23T05:12:34;12.85;;;8.82;;
71759;SDS011;59919;48.112;16.280;2023-01-23T05:15:05;12.05;;;8.23;;
71759;SDS011;59919;48.112;16.280;2023-01-23T05:17:38;11.77;;;8.48;;
71759;SDS011;59919;48.112;16.280;2023-01-23T05:20:09;12.85;;;9.07;;
71759;SDS011;59919;48.112;16.280;2023-01-23T05:22:42;12.45;;;8.70;;
71759;SDS011;59919;48.112;16.280;2023-01-23T05:25:22;13.82;;;8.35;;
71759;SDS011;59919;48.112;16.280;2023-01-23T05:27:57;13.25;;;8.57;;
71759;SDS011;59919;48.112;16.280;2023-01-23T05:30:30;14.10;;;8.88;;
71759;SDS011;59919;48.112;16.280;2023-01-23T05:33:06;11.73;;;8.35;;
71759;SDS011;59919;48.112;16.280;2023-01-23T05:35:37;12.40;;;8.18;;
71759;SDS011;59919;48.112;16.280;2023-01-23T05:38:10;13.70;;;8.40;;
71759;SDS011;59919;48.112;16.280;2023-01-23T05:40:44;13.00;;;8.82;;
71759;SDS011;59919;48.112;16.280;2023-01-23T05:43:15;13.05;;;8.98;;
71759;SDS011;59919;48.112;16.280;2023-01-23T05:45:46;13.90;;;8.25;;
71759;SDS011;59919;48.112;16.280;2023-01-23T05:48:17;12.18;;;8.38;;
71759;SDS011;59919;48.112;16.280;2023-01-23T05:50:53;13.88;;;9.07;;
71759;SDS011;59919;48.112;16.280;2023-01-23T05:53:24;14.10;;;8.75;;
71759;SDS011;59919;48.112;16.280;2023-01-23T05:55:58;13.48;;;9.40;;
71759;SDS011;59919;48.112;16.280;2023-01-23T05:58:29;12.65;;;8.82;;
71759;SDS011;59919;48.112;16.280;2023-01-23T06:01:03;13.70;;;8.80;;
71759;SDS011;59919;48.112;16.280;2023-01-23T06:03:34;13.05;;;9.02;;
71759;SDS011;59919;48.112;16.280;2023-01-23T06:06:16;13.30;;;8.65;;
71759;SDS011;59919;48.112;16.280;2023-01-23T06:08:49;13.98;;;8.80;;
71759;SDS011;59919;48.112;16.280;2023-01-23T06:11:20;13.85;;;8.77;;
71759;SDS011;59919;48.112;16.280;2023-01-23T06:13:53;12.43;;;8.80;;
71759;SDS011;59919;48.112;16.280;2023-01-23T06:16:27;13.13;;;8.60;;
71759;SDS011;59919;48.112;16.280;2023-01-23T06:18:58;13.73;;;8.65;;
71759;SDS011;59919;48.112;16.280;2023-01-23T06:21:29;13.60;;;8.85;;
71759;SDS011;59919;48.112;16.280;2023-01-23T06:24:03;13.88;;;9.05;;
71759;SDS011;59919;48.112;16.280;2023-01-23T06:26:34;14.48;;;9.20;;
71759;SDS011;59919;48.112;16.280;2023-01-23T06:29:05;14.63;;;9.10;;
71759;SDS011;59919;48.112;16.280;2023-01-23T06:31:36;14.98;;;9.63;;
71759;SDS011;59919;48.112;16.280;2023-01-23T06:34:07;14.20;;;9.32;;
71759;SDS011;59919;48.112;16.280;2023-01-23T06:36:39;12.23;;;8.38;;
71759;SDS011;59919;48.112;16.280;2023-01-23T06:39:12;14.27;;;9.35;;
71759;SDS011;59919;48.112;16.280;2023-01-23T06:41:47;13.02;;;8.55;;
71759;SDS011;59919;48.112;16.280;2023-01-23T06:44:20;13.40;;;8.98;;
71759;SDS011;59919;48.112;16.280;2023-01-23T06:46:52;12.65;;;8.73;;
71759;SDS011;59919;48.112;16.280;2023-01-23T06:49:23;12.90;;;8.73;;
71759;SDS011;59919;48.112;16.280;2023-01-23T06:51:54;14.38;;;8.52;;
71759;SDS011;59919;48.112;16.280;2023-01-23T06:54:28;11.60;;;7.97;;
71759;SDS011;59919;48.112;16.280;2023-01-23T06:57:02;13.40;;;9.23;;
71759;SDS011;59919;48.112;16.280;2023-01-23T06:59:39;12.93;;;8.45;;
71759;SDS011;59919;48.112;16.280;2023-01-23T07:02:10;12.50;;;8.07;;
71759;SDS011;59919;48.112;16.280;2023-01-23T07:04:42;13.18;;;8.05;;
71759;SDS011;59919;48.112;16.280;2023-01-23T07:07:18;12.13;;;8.57;;
71759;SDS011;59919;48.112;16.280;2023-01-23T07:09:49;11.65;;;8.57;;
71759;SDS011;59919;48.112;16.280;2023-01-23T07:12:24;11.32;;;7.32;;
71759;SDS011;59919;48.112;16.280;2023-01-23T07:14:55;12.23;;;8.10;;
71759;SDS011;59919;48.112;16.280;2023-01-23T07:17:26;12.30;;;7.55;;
71759;SDS011;59919;48.112;16.280;2023-01-23T07:19:57;13.38;;;8.07;;
71759;SDS011;59919;48.112;16.280;2023-01-23T07:22:31;11.30;;;6.85;;
71759;SDS011;59919;48.112;16.280;2023-01-23T07:25:02;10.85;;;7.30;;
71759;SDS011;59919;48.112;16.280;2023-01-23T07:27:34;11.05;;;7.60;;
71759;SDS011;59919;48.112;16.280;2023-01-23T07:30:08;12.23;;;8.32;;
71759;SDS011;59919;48.112;16.280;2023-01-23T07:32:39;11.23;;;7.90;;
71759;SDS011;59919;48.112;16.280;2023-01-23T07:35:11;10.70;;;7.03;;
71759;SDS011;59919;48.112;16.280;2023-01-23T07:37:43;9.60;;;6.65;;
71759;SDS011;59919;48.112;16.280;2023-01-23T07:40:16;11.00;;;6.88;;
71759;SDS011;59919;48.112;16.280;2023-01-23T07:42:47;9.80;;;6.95;;
71759;SDS011;59919;48.112;16.280;2023-01-23T07:45:18;10.23;;;6.95;;
71759;SDS011;59919;48.112;16.280;2023-01-23T07:47:54;10.90;;;7.13;;
71759;SDS011;59919;48.112;16.280;2023-01-23T07:50:27;11.88;;;7.47;;
71759;SDS011;59919;48.112;16.280;2023-01-23T07:52:58;11.80;;;7.05;;
71759;SDS011;59919;48.112;16.280;2023-01-23T07:55:29;11.38;;;6.82;;
71759;SDS011;59919;48.112;16.280;2023-01-23T07:58:00;10.85;;;6.45;;
71759;SDS011;59919;48.112;16.280;2023-01-23T08:00:34;10.45;;;6.45;;
71759;SDS011;59919;48.112;16.280;2023-01-23T08:03:05;9.70;;;6.22;;
71759;SDS011;59919;48.112;16.280;2023-01-23T08:05:36;11.32;;;6.35;;
71759;SDS011;59919;48.112;16.280;2023-01-23T08:08:07;10.60;;;6.93;;
71759;SDS011;59919;48.112;16.280;2023-01-23T08:10:38;10.93;;;6.88;;
71759;SDS011;59919;48.112;16.280;2023-01-23T08:13:10;9.27;;;6.30;;
71759;SDS011;59919;48.112;16.280;2023-01-23T08:15:44;11.85;;;6.63;;
71759;SDS011;59919;48.112;16.280;2023-01-23T08:18:16;10.68;;;6.90;;
71759;SDS011;59919;48.112;16.280;2023-01-23T08:20:53;11.43;;;7.10;;
71759;SDS011;59919;48.112;16.280;2023-01-23T08:23:26;9.93;;;6.45;;
71759;SDS011;59919;48.112;16.280;2023-01-23T08:26:02;10.95;;;6.43;;
71759;SDS011;59919;48.112;16.280;2023-01-23T08:28:35;10.30;;;7.05;;
71759;SDS011;59919;48.112;16.280;2023-01-23T08:31:09;8.32;;;6.07;;
71759;SDS011;59919;48.112;16.280;2023-01-23T08:33:41;9.32;;;6.50;;
71759;SDS011;59919;48.112;16.280;2023-01-23T08:36:15;9.02;;;6.35;;
71759;SDS011;59919;48.112;16.280;2023-01-23T08:38:46;10.73;;;6.30;;
71759;SDS011;59919;48.112;16.280;2023-01-23T08:41:18;11.55;;;6.57;;
71759;SDS011;59919;48.112;16.280;2023-01-23T08:43:49;10.02;;;6.82;;
71759;SDS011;59919;48.112;16.280;2023-01-23T08:46:20;9.27;;;6.72;;
71759;SDS011;59919;48.112;16.280;2023-01-23T08:48:51;8.38;;;5.95;;
71759;SDS011;59919;48.112;16.280;2023-01-23T08:51:22;10.48;;;6.30;;
71759;SDS011;59919;48.112;16.280;2023-01-23T08:53:55;10.52;;;6.57;;
71759;SDS011;59919;48.112;16.280;2023-01-23T08:56:30;9.98;;;6.18;;
71759;SDS011;59919;48.112;16.280;2023-01-23T08:59:04;10.20;;;6.53;;
71759;SDS011;59919;48.112;16.280;2023-01-23T09:01:38;10.95;;;5.80;;
71759;SDS011;59919;48.112;16.280;2023-01-23T09:04:09;9.35;;;6.53;;
71759;SDS011;59919;48.112;16.280;2023-01-23T09:06:41;10.77;;;6.45;;
71759;SDS011;59919;48.112;16.280;2023-01-23T09:09:15;10.10;;;5.75;;
71759;SDS011;59919;48.112;16.280;2023-01-23T09:11:47;9.85;;;6.55;;
71759;SDS011;59919;48.112;16.280;2023-01-23T09:14:18;9.05;;;5.55;;
71759;SDS011;59919;48.112;16.280;2023-01-23T09:16:52;9.60;;;6.05;;
71759;SDS011;59919;48.112;16.280;2023-01-23T09:19:23;9.65;;;6.05;;
71759;SDS011;59919;48.112;16.280;2023-01-23T09:21:57;9.18;;;5.95;;
71759;SDS011;59919;48.112;16.280;2023-01-23T09:24:28;11.05;;;6.95;;
71759;SDS011;59919;48.112;16.280;2023-01-23T09:26:59;9.57;;;5.80;;
71759;SDS011;59919;48.112;16.280;2023-01-23T09:29:32;10.48;;;5.70;;
71759;SDS011;59919;48.112;16.280;2023-01-23T09:32:03;8.55;;;5.15;;
71759;SDS011;59919;48.112;16.280;2023-01-23T09:34:35;9.10;;;5.68;;
71759;SDS011;59919;48.112;16.280;2023-01-23T09:37:06;8.63;;;5.40;;
71759;SDS011;59919;48.112;16.280;2023-01-23T09:39:37;11.00;;;5.60;;
71759;SDS011;59919;48.112;16.280;2023-01-23T09:42:14;10.73;;;5.68;;
71759;SDS011;59919;48.112;16.280;2023-01-23T09:44:55;10.35;;;5.70;;
71759;SDS011;59919;48.112;16.280;2023-01-23T09:50:59;9.88;;;6.07;;
71759;SDS011;59919;48.112;16.280;2023-01-23T09:53:35;10.88;;;5.57;;
71759;SDS011;59919;48.112;16.280;2023-01-23T10:01:51;8.93;;;5.93;;
71759;SDS011;59919;48.112;16.280;2023-01-23T10:04:25;9.15;;;4.65;;
71759;SDS011;59919;48.112;16.280;2023-01-23T10:18:30;6.22;;;4.93;;
71759;SDS011;59919;48.112;16.280;2023-01-23T10:21:32;9.70;;;5.18;;
71759;SDS011;59919;48.112;16.280;2023-01-23T10:27:02;7.95;;;5.13;;
71759;SDS011;59919;48.112;16.280;2023-01-23T10:29:44;8.68;;;5.43;;
71759;SDS011;59919;48.112;16.280;2023-01-23T10:32:27;11.10;;;5.63;;
71759;SDS011;59919;48.112;16.280;2023-01-23T10:35:01;10.25;;;5.18;;
71759;SDS011;59919;48.112;16.280;2023-01-23T10:37:47;11.63;;;5.38;;
71759;SDS011;59919;48.112;16.280;2023-01-23T10:40:25;7.85;;;4.90;;
71759;SDS011;59919;48.112;16.280;2023-01-23T10:43:19;7.55;;;5.10;;
71759;SDS011;59919;48.112;16.280;2023-01-23T10:45:51;7.75;;;5.03;;
71759;SDS011;59919;48.112;16.280;2023-01-23T10:50:57;9.60;;;5.47;;
71759;SDS011;59919;48.112;16.280;2023-01-23T10:53:29;7.30;;;5.43;;
71759;SDS011;59919;48.112;16.280;2023-01-23T10:56:00;7.90;;;4.93;;
71759;SDS011;59919;48.112;16.280;2023-01-23T10:58:38;7.95;;;5.07;;
71759;SDS011;59919;48.112;16.280;2023-01-23T11:01:26;8.45;;;5.65;;
71759;SDS011;59919;48.112;16.280;2023-01-23T11:04:10;9.25;;;5.32;;
71759;SDS011;59919;48.112;16.280;2023-01-23T11:07:22;6.93;;;4.60;;
71759;SDS011;59919;48.112;16.280;2023-01-23T11:09:51;9.70;;;5.43;;
71759;SDS011;59919;48.112;16.280;2023-01-23T11:12:30;8.80;;;5.57;;
71759;SDS011;59919;48.112;16.280;2023-01-23T11:15:18;9.13;;;5.55;;
71759;SDS011;59919;48.112;16.280;2023-01-23T11:17:53;10.82;;;5.10;;
71759;SDS011;59919;48.112;16.280;2023-01-23T11:22:58;8.02;;;5.55;;
71759;SDS011;59919;48.112;16.280;2023-01-23T11:25:31;6.78;;;5.25;;
71759;SDS011;59919;48.112;16.280;2023-01-23T11:31:08;7.30;;;5.00;;
71759;SDS011;59919;48.112;16.280;2023-01-23T11:37:17;7.25;;;5.25;;
71759;SDS011;59919;48.112;16.280;2023-01-23T11:40:17;8.63;;;5.38;;
71759;SDS011;59919;48.112;16.280;2023-01-23T11:42:49;6.97;;;4.78;;
71759;SDS011;59919;48.112;16.280;2023-01-23T11:51:19;10.63;;;4.93;;
71759;SDS011;59919;48.112;16.280;2023-01-23T11:57:15;8.05;;;5.15;;
71759;SDS011;59919;48.112;16.280;2023-01-23T12:00:12;8.45;;;5.28;;
71759;SDS011;59919;48.112;16.280;2023-01-23T12:14:51;7.40;;;5.13;;
71759;SDS011;59919;48.112;16.280;2023-01-23T12:20:37;7.43;;;4.80;;
71759;SDS011;59919;48.112;16.280;2023-01-23T12:23:35;8.40;;;5.30;;
71759;SDS011;59919;48.112;16.280;2023-01-23T12:26:20;7.88;;;5.40;;
71759;SDS011;59919;48.112;16.280;2023-01-23T12:38:05;8.30;;;5.13;;
71759;SDS011;59919;48.112;16.280;2023-01-23T12:40:36;8.38;;;5.68;;
71759;SDS011;59919;48.112;16.280;2023-01-23T12:43:17;7.00;;;4.90;;
71759;SDS011;59919;48.112;16.280;2023-01-23T12:46:06;8.55;;;5.20;;
71759;SDS011;59919;48.112;16.280;2023-01-23T12:48:45;9.15;;;5.57;;
71759;SDS011;59919;48.112;16.280;2023-01-23T12:51:29;7.80;;;5.30;;
71759;SDS011;59919;48.112;16.280;2023-01-23T12:54:10;9.57;;;5.05;;
71759;SDS011;59919;48.112;16.280;2023-01-23T12:56:48;8.00;;;5.32;;
71759;SDS011;59919;48.112;16.280;2023-01-23T13:14:19;8.52;;;5.38;;
71759;SDS011;59919;48.112;16.280;2023-01-23T13:16:51;7.20;;;5.35;;
71759;SDS011;59919;48.112;16.280;2023-01-23T13:25:00;9.13;;;4.93;;
71759;SDS011;59919;48.112;16.280;2023-01-23T13:52:05;6.90;;;4.78;;
71759;SDS011;59919;48.112;16.280;2023-01-23T13:55:01;6.53;;;5.10;;
71759;SDS011;59919;48.112;16.280;2023-01-23T13:58:02;9.20;;;5.65;;
71759;SDS011;59919;48.112;16.280;2023-01-23T14:00:35;7.50;;;5.40;;
71759;SDS011;59919;48.112;16.280;2023-01-23T14:03:15;6.50;;;4.82;;
71759;SDS011;59919;48.112;16.280;2023-01-23T14:06:16;9.30;;;5.30;;
71759;SDS011;59919;48.112;16.280;2023-01-23T14:09:23;7.95;;;5.28;;
71759;SDS011;59919;48.112;16.280;2023-01-23T14:12:01;8.57;;;5.40;;
71759;SDS011;59919;48.112;16.280;2023-01-23T14:14:36;8.10;;;5.50;;
71759;SDS011;59919;48.112;16.280;2023-01-23T14:17:26;7.53;;;5.70;;
71759;SDS011;59919;48.112;16.280;2023-01-23T14:20:03;7.05;;;4.85;;
71759;SDS011;59919;48.112;16.280;2023-01-23T14:22:41;8.57;;;5.22;;
71759;SDS011;59919;48.112;16.280;2023-01-23T14:25:15;8.65;;;5.28;;
71759;SDS011;59919;48.112;16.280;2023-01-23T14:27:47;8.93;;;5.72;;
71759;SDS011;59919;48.112;16.280;2023-01-23T14:30:23;7.75;;;5.40;;
71759;SDS011;59919;48.112;16.280;2023-01-23T14:32:56;6.18;;;4.82;;
71759;SDS011;59919;48.112;16.280;2023-01-23T14:35:31;8.63;;;5.32;;
71759;SDS011;59919;48.112;16.280;2023-01-23T14:38:04;8.13;;;5.50;;
71759;SDS011;59919;48.112;16.280;2023-01-23T14:40:39;9.65;;;5.15;;
71759;SDS011;59919;48.112;16.280;2023-01-23T14:43:15;7.80;;;5.32;;
71759;SDS011;59919;48.112;16.280;2023-01-23T14:46:00;6.97;;;4.80;;
71759;SDS011;59919;48.112;16.280;2023-01-23T14:48:35;8.35;;;5.65;;
71759;SDS011;59919;48.112;16.280;2023-01-23T14:53:52;7.18;;;5.10;;
71759;SDS011;59919;48.112;16.280;2023-01-23T14:56:25;9.07;;;5.60;;
71759;SDS011;59919;48.112;16.280;2023-01-23T14:59:00;6.50;;;4.95;;
71759;SDS011;59919;48.112;16.280;2023-01-23T15:01:33;7.60;;;5.75;;
71759;SDS011;59919;48.112;16.280;2023-01-23T15:04:06;9.45;;;5.60;;
71759;SDS011;59919;48.112;16.280;2023-01-23T15:06:50;6.65;;;4.82;;
71759;SDS011;59919;48.112;16.280;2023-01-23T15:09:33;7.93;;;5.53;;
71759;SDS011;59919;48.112;16.280;2023-01-23T15:12:13;8.07;;;5.10;;
71759;SDS011;59919;48.112;16.280;2023-01-23T15:14:46;6.28;;;4.70;;
71759;SDS011;59919;48.112;16.280;2023-01-23T15:19:54;8.98;;;4.80;;
71759;SDS011;59919;48.112;16.280;2023-01-23T15:22:26;7.50;;;4.97;;
71759;SDS011;59919;48.112;16.280;2023-01-23T15:25:15;9.20;;;4.93;;
71759;SDS011;59919;48.112;16.280;2023-01-23T15:27:57;11.60;;;5.10;;
71759;SDS011;59919;48.112;16.280;2023-01-23T15:36:02;7.80;;;4.70;;
71759;SDS011;59919;48.112;16.280;2023-01-23T15:38:35;6.95;;;4.32;;
71759;SDS011;59919;48.112;16.280;2023-01-23T15:41:15;7.95;;;4.90;;
71759;SDS011;59919;48.112;16.280;2023-01-23T15:43:52;8.32;;;5.20;;
71759;SDS011;59919;48.112;16.280;2023-01-23T15:46:23;9.55;;;5.15;;
71759;SDS011;59919;48.112;16.280;2023-01-23T15:48:54;13.35;;;5.35;;
71759;SDS011;59919;48.112;16.280;2023-01-23T15:51:25;10.57;;;5.63;;
71759;SDS011;59919;48.112;16.280;2023-01-23T15:53:56;9.00;;;5.30;;
71759;SDS011;59919;48.112;16.280;2023-01-23T15:56:30;9.98;;;5.20;;
71759;SDS011;59919;48.112;16.280;2023-01-23T15:59:04;9.80;;;5.40;;
71759;SDS011;59919;48.112;16.280;2023-01-23T16:01:41;8.93;;;5.03;;
71759;SDS011;59919;48.112;16.280;2023-01-23T16:04:12;10.82;;;5.30;;
71759;SDS011;59919;48.112;16.280;2023-01-23T16:06:43;8.60;;;4.90;;
71759;SDS011;59919;48.112;16.280;2023-01-23T16:12:03;11.13;;;5.22;;
71759;SDS011;59919;48.112;16.280;2023-01-23T16:14:37;9.68;;;5.55;;
71759;SDS011;59919;48.112;16.280;2023-01-23T16:17:08;11.50;;;5.60;;
71759;SDS011;59919;48.112;16.280;2023-01-23T16:19:41;9.15;;;5.60;;
71759;SDS011;59919;48.112;16.280;2023-01-23T16:22:15;9.27;;;5.25;;
71759;SDS011;59919;48.112;16.280;2023-01-23T16:24:51;7.80;;;5.03;;
71759;SDS011;59919;48.112;16.280;2023-01-23T16:27:23;7.10;;;5.25;;
71759;SDS011;59919;48.112;16.280;2023-01-23T16:29:57;9.00;;;5.05;;
71759;SDS011;59919;48.112;16.280;2023-01-23T16:32:28;7.90;;;4.90;;
71759;SDS011;59919;48.112;16.280;2023-01-23T16:35:01;10.68;;;5.28;;
71759;SDS011;59919;48.112;16.280;2023-01-23T16:37:38;8.68;;;4.55;;
71759;SDS011;59919;48.112;16.280;2023-01-23T16:43:09;9.70;;;4.97;;
71759;SDS011;59919;48.112;16.280;2023-01-23T16:45:40;6.57;;;5.32;;
71759;SDS011;59919;48.112;16.280;2023-01-23T16:48:11;6.72;;;5.10;;
71759;SDS011;59919;48.112;16.280;2023-01-23T16:50:44;6.18;;;4.75;;
71759;SDS011;59919;48.112;16.280;2023-01-23T16:53:31;10.25;;;5.18;;
71759;SDS011;59919;48.112;16.280;2023-01-23T16:56:10;7.22;;;4.97;;
71759;SDS011;59919;48.112;16.280;2023-01-23T16:58:48;8.25;;;5.18;;
71759;SDS011;59919;48.112;16.280;2023-01-23T17:01:20;8.10;;;5.63;;
71759;SDS011;59919;48.112;16.280;2023-01-23T17:03:59;7.03;;;4.32;;
71759;SDS011;59919;48.112;16.280;2023-01-23T17:06:32;6.95;;;5.05;;
71759;SDS011;59919;48.112;16.280;2023-01-23T17:09:03;7.63;;;5.05;;
71759;SDS011;59919;48.112;16.280;2023-01-23T17:14:08;8.73;;;5.30;;
71759;SDS011;59919;48.112;16.280;2023-01-23T17:16:51;6.20;;;4.75;;
71759;SDS011;59919;48.112;16.280;2023-01-23T17:19:30;7.07;;;5.13;;
71759;SDS011;59919;48.112;16.280;2023-01-23T17:22:04;9.48;;;5.15;;
71759;SDS011;59919;48.112;16.280;2023-01-23T17:24:38;7.10;;;4.60;;
71759;SDS011;59919;48.112;16.280;2023-01-23T17:27:11;7.95;;;5.38;;
71759;SDS011;59919;48.112;16.280;2023-01-23T17:29:42;7.88;;;5.03;;
71759;SDS011;59919;48.112;16.280;2023-01-23T17:32:25;7.97;;;5.18;;
71759;SDS011;59919;48.112;16.280;2023-01-23T17:35:05;6.82;;;4.85;;
71759;SDS011;59919;48.112;16.280;2023-01-23T17:37:41;6.85;;;4.90;;
71759;SDS011;59919;48.112;16.280;2023-01-23T17:40:13;8.70;;;5.15;;
71759;SDS011;59919;48.112;16.280;2023-01-23T17:42:44;9.07;;;5.28;;
71759;SDS011;59919;48.112;16.280;2023-01-23T17:45:19;7.45;;;4.82;;